• Join FlightAware (Why Join?)
  • Login
  • US Flag 
06:44AM EDT


 

Airport Tracker/Info


-or-


 

Live Flight TrackerFlight Track Log ✈ EJA727 ✈ 09-May-2013 ✈ KBJC - KAUS

Flight Track Log - Related Links

Times and Time Zones

All times are in EDT time to prevent confusion due to time zone crossing. See the EJA727 flight status page for this flight to view local times or setup timezone preferences in your user account.

Time Position Orientation Groundspeed Altitude Reporting Facility
EDT Latitude Longitude Course Direction KTS MPH feet Rate Location/Type
08:31PM 39.9500 -105.1500 146° Southeast 222 255 7,700  Level Denver TRACON
08:32PM 40.0000 -105.1000 37° Northeast 266 306 11,300 3,720 Climbing Denver TRACON
08:33PM 39.9833 -105.0167 105° East 305 351 15,200 3,660 Climbing Denver TRACON
08:34PM 39.9600 -104.9992 150° Southeast 304 350 15,900 2,880 Climbing Denver Center
08:35PM 39.8550 -104.9694 168° South 363 418 18,900 2,820 Climbing Denver Center
08:36PM 39.7494 -104.9389 167° South 394 453 21,800 2,640 Climbing Denver Center
08:37PM 39.3098 -104.5896 146° Southeast  Level Estimated
08:37PM 39.6244 -104.9036 168° South 426 490 24,400  Level Denver Center
08:38PM 39.5064 -104.8689 167° South 439 505 26,700 1,980 Climbing Denver Center
08:39PM 39.3900 -104.7767 149° Southeast 454 522 28,600 1,560 Climbing Denver Center
08:40PM 39.2817 -104.6942 149° Southeast 455 524 29,900 1,800 Climbing Denver Center
08:41PM 39.1881 -104.6197 148° Southeast 466 536 32,300 2,280 Climbing Denver Center
08:42PM 39.0656 -104.5214 148° Southeast 428 493 34,700 1,980 Climbing Denver Center
08:43PM 38.9683 -104.4425 148° Southeast 429 494 36,400 1,380 Climbing Denver Center
08:44PM 38.8539 -104.3522 148° Southeast 431 496 37,600 720 Climbing Denver Center
08:45PM 38.7511 -104.2750 150° Southeast 441 507 38,000 300 Climbing Denver Center
08:46PM 38.6283 -104.1786 148° Southeast 457 526 38,300 480 Climbing Denver Center
08:47PM 38.5208 -104.0981 150° Southeast 464 534 39,000 300 Climbing Denver Center
08:48PM 38.3975 -104.0019 149° Southeast 464 534 39,000  Level Denver Center
08:49PM 38.2906 -103.9222 150° Southeast 464 534 39,000  Level Denver Center
08:50PM 38.1675 -103.8272 149° Southeast 461 531 39,000  Level Denver Center
08:51PM 38.0603 -103.7464 149° Southeast 465 535 39,000  Level Denver Center
08:52PM 37.9528 -103.6658 149° Southeast 465 535 39,000  Level Denver Center
08:54PM 37.8275 -103.5717 149° Southeast 466 536 39,000  Level Denver Center
08:55PM 37.6989 -103.4756 149° Southeast 473 544 39,000  Level Denver Center
08:56PM 37.5714 -103.3806 149° Southeast 474 545 39,000  Level Denver Center
08:57PM 37.4272 -103.2722 149° Southeast 471 542 39,000  Level Denver Center
08:58PM 37.3183 -103.1917 150° Southeast 471 542 39,000  Level Denver Center
08:59PM 37.2094 -103.1119 150° Southeast 471 542 39,000  Level Denver Center
09:00PM 37.0814 -103.0189 150° Southeast 474 545 39,000  Level Denver Center
09:01PM 36.9736 -102.9394 150° Southeast 470 541 39,000  Level Denver Center
09:02PM 36.8475 -102.8483 150° Southeast 472 543 39,000  Level Albuquerque Center
09:03PM 36.7383 -102.7697 150° Southeast 472 543 39,000  Level Albuquerque Center
09:04PM 36.6197 -102.6822 149° Southeast 471 542 39,000  Level Albuquerque Center
09:05PM 36.5056 -102.6000 150° Southeast 474 545 39,000 300 Level Albuquerque Center
09:06PM 36.3953 -102.5189 149° Southeast 466 536 39,700 780 Climbing Albuquerque Center
09:07PM 36.2872 -102.4403 150° Southeast 455 524 40,700 600 Climbing Albuquerque Center
09:08PM 36.1803 -102.3642 150° Southeast 446 513 41,000 120 Climbing Albuquerque Center
09:09PM 36.0717 -102.2867 150° Southeast 448 516 41,000  Level Albuquerque Center
09:10PM 35.9383 -102.1931 150° Southeast 458 527 41,000  Level Albuquerque Center
09:11PM 35.8269 -102.1133 150° Southeast 463 533 41,000  Level Albuquerque Center
09:12PM 35.7131 -102.0344 151° Southeast 467 537 41,000  Level Albuquerque Center
09:13PM 35.6006 -101.9539 150° Southeast 469 540 41,000  Level Albuquerque Center
09:14PM 35.5031 -101.8631 143° Southeast 461 531 41,000  Level Albuquerque Center
09:15PM 35.3886 -101.7325 137° Southeast 471 542 41,000  Level Albuquerque Center
09:16PM 35.2886 -101.6192 137° Southeast 474 545 41,000  Level Albuquerque Center
09:17PM 35.1953 -101.5078 136° Southeast 471 542 41,000  Level Albuquerque Center
09:18PM 35.0994 -101.3964 136° Southeast 473 544 41,000  Level Albuquerque Center
09:19PM 34.9972 -101.3233 150° Southeast 471 542 41,000  Level Albuquerque Center
09:20PM 34.8828 -101.2492 152° Southeast 468 539 41,000  Level Albuquerque Center
09:22PM 34.7464 -101.1628 152° Southeast 461 531 41,000  Level Albuquerque Center
09:23PM 34.6336 -101.0914 152° Southeast 459 528 41,000  Level Albuquerque Center
09:24PM 34.5217 -101.0200 152° Southeast 455 524 41,000  Level Albuquerque Center
09:25PM 34.4083 -100.9500 153° Southeast 456 525 41,000  Level Albuquerque Center
09:25PM 34.3147 -100.8908 152° Southeast 460 529 41,000  Level Fort Worth Center
09:26PM 34.2000 -100.8208 153° Southeast 460 529 41,000  Level Fort Worth Center
09:27PM 34.0850 -100.7486 153° Southeast 460 529 41,000  Level Fort Worth Center
09:28PM 33.9722 -100.6742 151° Southeast 460 529 41,000  Level Fort Worth Center
09:29PM 33.8531 -100.6047 154° Southeast 465 535 41,000  Level Fort Worth Center
09:30PM 33.7358 -100.5306 152° Southeast 465 535 41,000  Level Fort Worth Center
09:31PM 33.6186 -100.4617 154° Southeast 465 535 41,000  Level Fort Worth Center
09:32PM 33.5056 -100.3903 152° Southeast 465 535 41,000  Level Fort Worth Center
09:33PM 33.3883 -100.3192 153° Southeast 465 535 41,000  Level Fort Worth Center
09:34PM 33.2772 -100.2508 153° Southeast 465 535 41,000  Level Fort Worth Center
09:35PM 33.1619 -100.1803 153° Southeast 465 535 41,000  Level Fort Worth Center
09:36PM 33.0444 -100.1097 153° Southeast 465 535 41,000  Level Fort Worth Center
09:37PM 32.9289 -100.0419 154° Southeast 465 535 41,000  Level Fort Worth Center
09:38PM 32.8383 -99.9872 153° Southeast 465 535 41,000  Level Fort Worth Center
09:39PM 32.6856 -99.9014 155° Southeast 471 542 41,000  Level Fort Worth Center
09:40PM 32.5761 -99.8294 151° Southeast 466 536 41,000  Level Fort Worth Center
09:41PM 32.4564 -99.7597 154° Southeast 471 542 41,000  Level Fort Worth Center
09:42PM 32.3494 -99.6758 146° Southeast 460 529 41,000  Level Fort Worth Center
09:43PM 32.2469 -99.5725 140° Southeast 466 536 41,000  Level Fort Worth Center
09:44PM 32.1464 -99.4719 140° Southeast 477 549 41,000 -60 Level Fort Worth Center
09:45PM 32.0414 -99.3692 140° Southeast 483 556 40,900 -1,080 Descending Fort Worth Center
09:46PM 31.9408 -99.2667 139° Southeast 483 556 38,900 -2,040 Descending Fort Worth Center
09:47PM 31.8378 -99.1692 141° Southeast 483 556 36,900 -2,040 Descending Fort Worth Center
09:48PM 31.7431 -99.0744 140° Southeast 470 541 34,900 -2,040 Descending Fort Worth Center
09:50PM 31.5500 -98.8797 139° Southeast 442 509 30,600 -1,920 Descending Houston Center
09:51PM 31.4572 -98.7906 141° Southeast 431 496 29,000 -960 Descending Houston Center
09:52PM 31.3617 -98.6964 140° Southeast 445 512 28,700 -900 Descending Houston Center
09:54PM 31.2572 -98.5964 141° Southeast 475 547 27,200 -840 Descending Houston Center
09:55PM 31.1578 -98.4978 140° Southeast 467 537 27,000 -120 Descending Houston Center
09:56PM 31.0636 -98.4078 141° Southeast 441 507 27,000 -840 Level Houston Center
09:57PM 30.9700 -98.3178 140° Southeast 435 501 25,300 -1,740 Descending Houston Center
09:58PM 30.8831 -98.2328 140° Southeast 409 471 23,500 -1,980 Descending Houston Center
09:59PM 30.7928 -98.1467 141° Southeast 362 417 21,300 -2,640 Descending Houston Center
10:00PM 30.7167 -98.0722 140° Southeast 357 411 18,200 -3,000 Descending Houston Center
10:01PM 30.6594 -97.9775 125° Southeast 355 409 15,200 -2,880 Descending Houston Center
10:02PM 30.5950 -97.8956 132° Southeast 347 399 12,300 -2,580 Descending Houston Center
10:03PM 30.5147 -97.8639 161° South 309 356 10,000 -2,400 Descending Houston Center
10:04PM 30.4367 -97.8319 161° South 298 343 7,500 -1,980 Descending Houston Center
10:05PM 30.3597 -97.8075 165° South 289 333 6,000 -1,260 Descending Houston Center
10:06PM 30.2856 -97.7939 171° South 274 315 5,000 -540 Descending Houston Center
10:07PM 30.2222 -97.7875 175° South 240 276 5,000 -540 Level Houston Center
10:08PM 30.1600 -97.7797 174° South 226 260 4,000 -1,020 Descending Houston Center
10:09PM 30.0997 -97.7669 170° South 220 253 3,000 -840 Descending Houston Center
10:10PM 30.0314 -97.7433 163° South 218 251 2,400 -300 Descending Houston Center
10:11PM 30.0111 -97.6964 117° Southeast 223 257 2,400 -180 Level Houston Center
10:12PM 30.0558 -97.6517 41° Northeast 204 235 2,100 -300 Descending Houston Center
10:13PM 30.1058 -97.6550 357° North 185 213 1,900 -540 Descending Houston Center
10:14PM 30.1506 -97.6569 358° North 171 197 1,100 -840 Descending Houston Center